Time;durP1;ratioP1;P1;durP2;ratioP2;P2;SDS_P1;SDS_P2;PMS_P1;PMS_P2;Temp;Humidity;BMP_temperature;BMP_pressure;BME280_temperature;BME280_humidity;BME280_pressure;Samples;Min_cycle;Max_cycle;Signal;HPM_P1;HPM_P2
2023/08/27 00:01:46;;;;;;;;;;;15.50;99.90;;;;;;8373465;28;19936;-71
2023/08/27 00:05:48;;;;;;;;;;;15.50;99.90;;;;;;8349260;28;19924;-71
2023/08/27 00:09:50;;;;;;;;;;;15.50;99.90;;;;;;8374475;28;20325;-71
2023/08/27 00:13:52;;;;;;;;;;;15.40;99.90;;;;;;8374287;28;20345;-71
2023/08/27 00:17:53;;;;;;;;;;;15.40;99.90;;;;;;8377610;28;19924;-71
2023/08/27 00:21:58;;;;;;;;;;;15.50;99.90;;;;;;8369524;28;20303;-71
2023/08/27 00:25:59;;;;;;;;;;;15.50;99.90;;;;;;8375052;28;19925;-71
2023/08/27 00:30:04;;;;;;;;;;;15.50;99.90;;;;;;8377727;28;20360;-71
2023/08/27 00:34:06;;;;;;;;;;;15.60;99.90;;;;;;8370712;28;19978;-71
2023/08/27 00:38:07;;;;;;;;;;;15.60;99.90;;;;;;8372115;28;19925;-71
2023/08/27 00:42:09;;;;;;;;;;;15.60;99.90;;;;;;8365378;28;19971;-71
2023/08/27 00:46:11;;;;;;;;;;;15.60;99.90;;;;;;8371312;28;20376;-71
2023/08/27 00:50:14;;;;;;;;;;;15.60;99.90;;;;;;8366547;28;19929;-71
2023/08/27 00:54:15;;;;;;;;;;;15.60;99.90;;;;;;8372364;28;19948;-71
2023/08/27 00:58:17;;;;;;;;;;;15.60;99.90;;;;;;8374872;28;20272;-73
2023/08/27 01:02:19;;;;;;;;;;;15.60;99.90;;;;;;8372579;28;19932;-73
2023/08/27 01:06:20;;;;;;;;;;;15.50;99.90;;;;;;8361756;28;20328;-73
2023/08/27 01:10:28;;;;;;;;;;;15.50;99.90;;;;;;8365918;28;19928;-73
2023/08/27 01:14:33;;;;;;;;;;;15.60;99.90;;;;;;8373046;28;19924;-73
2023/08/27 01:18:36;;;;;;;;;;;15.60;99.90;;;;;;8370329;28;19972;-73
2023/08/27 01:22:37;;;;;;;;;;;15.60;99.90;;;;;;8374784;28;20413;-73
2023/08/27 01:26:45;;;;;;;;;;;15.60;99.90;;;;;;8368762;28;19929;-73
2023/08/27 01:30:55;;;;;;;;;;;15.60;99.90;;;;;;8366703;28;19925;-73
2023/08/27 01:34:59;;;;;;;;;;;15.60;99.90;;;;;;8372815;28;19928;-73
2023/08/27 01:39:00;;;;;;;;;;;15.60;99.90;;;;;;8368970;28;19924;-74
2023/08/27 01:43:02;;;;;;;;;;;15.50;99.90;;;;;;8369539;28;19929;-73
2023/08/27 01:47:04;;;;;;;;;;;15.50;99.90;;;;;;8365948;28;19929;-73
2023/08/27 01:51:06;;;;;;;;;;;15.50;99.90;;;;;;8370627;28;19925;-73
2023/08/27 01:55:08;;;;;;;;;;;15.50;99.90;;;;;;8368211;28;19936;-74
2023/08/27 01:59:10;;;;;;;;;;;15.50;99.90;;;;;;8358562;28;19929;-73
2023/08/27 02:08:15;;;;;;;;;;;15.50;99.90;;;;;;8370158;28;19924;-73
2023/08/27 02:12:16;;;;;;;;;;;15.40;99.90;;;;;;8369118;28;19924;-73
2023/08/27 02:31:31;;;;;;;;;;;15.30;99.90;;;;;;8341359;28;19932;-73
2023/08/27 02:35:33;;;;;;;;;;;15.30;99.90;;;;;;8332091;28;20351;-73
2023/08/27 02:39:34;;;;;;;;;;;15.40;99.90;;;;;;8336536;28;20389;-73
2023/08/27 02:43:36;;;;;;;;;;;15.40;99.90;;;;;;8339631;28;19979;-73
2023/08/27 02:47:38;;;;;;;;;;;15.40;99.90;;;;;;8353504;28;19978;-73
2023/08/27 02:51:39;;;;;;;;;;;15.40;99.90;;;;;;8364377;28;20355;-74
2023/08/27 02:55:41;;;;;;;;;;;15.50;99.90;;;;;;8345422;28;19994;-73
2023/08/27 02:59:43;;;;;;;;;;;15.40;99.90;;;;;;8349431;28;20257;-73
2023/08/27 03:03:45;;;;;;;;;;;15.40;99.90;;;;;;8334663;28;19929;-74
2023/08/27 03:07:46;;;;;;;;;;;15.40;99.90;;;;;;8342470;28;19928;-74
2023/08/27 03:11:48;;;;;;;;;;;15.40;99.90;;;;;;8343945;28;19932;-73
2023/08/27 03:15:50;;;;;;;;;;;15.40;99.90;;;;;;8348489;28;19925;-73
2023/08/27 03:19:51;;;;;;;;;;;15.40;99.90;;;;;;8345601;28;19925;-73
2023/08/27 03:23:53;;;;;;;;;;;15.40;99.90;;;;;;8372088;28;19925;-73
2023/08/27 03:27:55;;;;;;;;;;;15.30;99.90;;;;;;8347676;28;20425;-72
2023/08/27 03:42:04;;;;;;;;;;;15.30;99.90;;;;;;8377385;28;19931;-72
2023/08/27 03:46:05;;;;;;;;;;;15.30;99.90;;;;;;8351433;28;19925;-72
2023/08/27 03:50:07;;;;;;;;;;;15.40;99.90;;;;;;8377138;28;20367;-73
2023/08/27 03:54:09;;;;;;;;;;;15.40;99.90;;;;;;8375087;28;20334;-72
2023/08/27 03:58:11;;;;;;;;;;;15.40;99.90;;;;;;8381165;28;19924;-73
2023/08/27 04:02:12;;;;;;;;;;;15.40;99.90;;;;;;8380555;28;20290;-73
2023/08/27 04:06:14;;;;;;;;;;;15.50;99.90;;;;;;8380244;28;19928;-72
2023/08/27 04:10:16;;;;;;;;;;;15.40;99.90;;;;;;8375436;28;20322;-73
2023/08/27 04:14:17;;;;;;;;;;;15.40;99.90;;;;;;8371704;28;19929;-73
2023/08/27 04:18:19;;;;;;;;;;;15.40;99.90;;;;;;8379597;28;19970;-73
2023/08/27 04:22:21;;;;;;;;;;;15.40;99.90;;;;;;8368067;28;20301;-72
2023/08/27 04:26:24;;;;;;;;;;;15.40;99.90;;;;;;8371163;28;19936;-72
2023/08/27 04:30:25;;;;;;;;;;;15.40;99.90;;;;;;8372906;28;19925;-72
2023/08/27 04:34:27;;;;;;;;;;;15.40;99.90;;;;;;8375235;28;20332;-73
2023/08/27 04:38:29;;;;;;;;;;;15.40;99.90;;;;;;8376086;28;19928;-73
2023/08/27 04:42:30;;;;;;;;;;;15.40;99.90;;;;;;8369835;28;19978;-72
2023/08/27 04:46:32;;;;;;;;;;;15.50;99.90;;;;;;8371736;28;19979;-73
2023/08/27 04:50:34;;;;;;;;;;;15.50;99.90;;;;;;8376840;28;19924;-72
2023/08/27 04:54:36;;;;;;;;;;;15.50;99.90;;;;;;8374210;28;20623;-72
2023/08/27 04:58:38;;;;;;;;;;;15.50;99.90;;;;;;8380319;28;19935;-72
2023/08/27 05:02:39;;;;;;;;;;;15.40;99.90;;;;;;8368003;28;19924;-72
2023/08/27 05:06:41;;;;;;;;;;;15.40;99.90;;;;;;8370486;28;20012;-73
2023/08/27 05:10:42;;;;;;;;;;;15.40;99.90;;;;;;8366770;28;19939;-72
2023/08/27 05:14:44;;;;;;;;;;;15.50;99.90;;;;;;8378079;28;21425;-72
2023/08/27 05:18:46;;;;;;;;;;;15.40;99.90;;;;;;8373836;28;19939;-73
2023/08/27 05:22:47;;;;;;;;;;;15.40;99.90;;;;;;8367577;28;19928;-72
2023/08/27 05:26:49;;;;;;;;;;;15.40;99.90;;;;;;8371613;28;20393;-73
2023/08/27 05:30:51;;;;;;;;;;;15.40;99.90;;;;;;8370103;28;19932;-72
2023/08/27 05:34:53;;;;;;;;;;;15.40;99.90;;;;;;8360722;28;20294;-73
2023/08/27 05:38:55;;;;;;;;;;;15.40;99.90;;;;;;8367054;28;19933;-73
2023/08/27 05:42:57;;;;;;;;;;;15.40;99.90;;;;;;8368940;28;20375;-73
2023/08/27 05:46:59;;;;;;;;;;;15.40;99.90;;;;;;8371146;28;19963;-73
2023/08/27 05:51:00;;;;;;;;;;;15.40;99.90;;;;;;8376923;28;19925;-73
2023/08/27 05:55:02;;;;;;;;;;;15.40;99.90;;;;;;8377152;28;19928;-73
2023/08/27 05:59:04;;;;;;;;;;;15.40;99.90;;;;;;8381469;28;19928;-73
2023/08/27 06:03:05;;;;;;;;;;;15.40;99.90;;;;;;8378900;28;19928;-73
2023/08/27 06:07:08;;;;;;;;;;;15.40;99.90;;;;;;8352739;28;20280;-72
2023/08/27 06:11:09;;;;;;;;;;;15.40;99.90;;;;;;8375113;28;19925;-73
2023/08/27 06:15:11;;;;;;;;;;;15.30;99.90;;;;;;8369111;28;19925;-72
2023/08/27 06:19:12;;;;;;;;;;;15.40;99.90;;;;;;8371077;28;19925;-73
2023/08/27 06:23:14;;;;;;;;;;;15.40;99.90;;;;;;8371459;28;19983;-72
2023/08/27 06:27:16;;;;;;;;;;;15.40;99.90;;;;;;8375448;28;19932;-72
2023/08/27 06:31:18;;;;;;;;;;;15.40;99.90;;;;;;8379793;28;20389;-73
2023/08/27 06:35:19;;;;;;;;;;;15.50;99.90;;;;;;8370330;28;19924;-73
2023/08/27 06:39:21;;;;;;;;;;;15.60;99.90;;;;;;8366082;28;19925;-73
2023/08/27 06:43:23;;;;;;;;;;;15.60;99.90;;;;;;8370610;28;20027;-73
2023/08/27 06:47:24;;;;;;;;;;;15.70;99.90;;;;;;8362581;28;19986;-73
2023/08/27 06:51:28;;;;;;;;;;;15.80;99.90;;;;;;8371193;28;19924;-73
2023/08/27 06:55:29;;;;;;;;;;;15.80;99.90;;;;;;8375036;28;20003;-73
2023/08/27 06:59:31;;;;;;;;;;;15.90;99.90;;;;;;8377087;28;20314;-73
2023/08/27 07:03:33;;;;;;;;;;;16.00;99.90;;;;;;8373486;28;19956;-73
2023/08/27 07:07:38;;;;;;;;;;;16.00;99.90;;;;;;8380361;28;19977;-73
2023/08/27 07:11:40;;;;;;;;;;;16.10;99.90;;;;;;8365579;28;20372;-73
2023/08/27 07:15:42;;;;;;;;;;;16.10;99.90;;;;;;8379014;28;19939;-73
2023/08/27 07:19:43;;;;;;;;;;;16.10;99.90;;;;;;8365689;28;19928;-70
2023/08/27 07:23:45;;;;;;;;;;;16.10;99.90;;;;;;8368998;28;19925;-70
2023/08/27 07:27:47;;;;;;;;;;;16.10;99.90;;;;;;8364220;28;19932;-70
2023/08/27 07:31:48;;;;;;;;;;;16.10;99.90;;;;;;8367497;28;19947;-71
2023/08/27 07:35:50;;;;;;;;;;;16.10;99.90;;;;;;8372418;28;19925;-71
2023/08/27 07:39:52;;;;;;;;;;;16.20;99.90;;;;;;8374923;28;19924;-71
2023/08/27 07:43:53;;;;;;;;;;;16.30;99.90;;;;;;8380602;28;19925;-71
2023/08/27 07:47:55;;;;;;;;;;;16.20;99.90;;;;;;8376787;28;19986;-71
2023/08/27 07:51:57;;;;;;;;;;;16.20;99.90;;;;;;8370011;28;19925;-71
2023/08/27 07:55:58;;;;;;;;;;;16.30;99.90;;;;;;8370650;28;19925;-71
2023/08/27 08:00:00;;;;;;;;;;;16.50;99.90;;;;;;8366390;28;19931;-70
2023/08/27 08:04:03;;;;;;;;;;;16.50;99.90;;;;;;8355833;28;19982;-70
2023/08/27 08:08:04;;;;;;;;;;;16.60;99.90;;;;;;8370450;28;19931;-71
2023/08/27 08:12:07;;;;;;;;;;;16.60;99.90;;;;;;8380626;28;19978;-71
2023/08/27 08:16:09;;;;;;;;;;;16.60;99.90;;;;;;8380110;28;20334;-71
2023/08/27 08:20:11;;;;;;;;;;;16.60;99.90;;;;;;8371534;28;19936;-70
2023/08/27 08:24:13;;;;;;;;;;;16.60;99.90;;;;;;8371622;28;19931;-70
2023/08/27 08:28:17;;;;;;;;;;;16.70;99.90;;;;;;8372147;28;19932;-71
2023/08/27 08:32:19;;;;;;;;;;;16.80;99.90;;;;;;8373811;28;19925;-71
2023/08/27 08:36:20;;;;;;;;;;;16.90;99.90;;;;;;8373961;28;19940;-72
2023/08/27 08:40:22;;;;;;;;;;;17.00;99.90;;;;;;8370013;28;19928;-71
2023/08/27 08:44:30;;;;;;;;;;;17.10;99.90;;;;;;8367215;28;19928;-71
2023/08/27 08:48:47;;;;;;;;;;;17.30;99.90;;;;;;8368781;28;19932;-71
2023/08/27 08:52:49;;;;;;;;;;;17.30;99.90;;;;;;8375941;28;19936;-71
2023/08/27 08:56:53;;;;;;;;;;;17.40;99.90;;;;;;8366369;28;20453;-72
2023/08/27 09:00:55;;;;;;;;;;;17.50;99.90;;;;;;8372759;28;20492;-72
2023/08/27 09:04:57;;;;;;;;;;;17.60;99.90;;;;;;8363986;28;20449;-71
2023/08/27 09:09:00;;;;;;;;;;;17.60;99.90;;;;;;8360685;28;20363;-71
2023/08/27 09:13:05;;;;;;;;;;;17.40;99.90;;;;;;8370362;28;19935;-72
2023/08/27 09:17:07;;;;;;;;;;;17.20;99.90;;;;;;8374016;28;19925;-70
2023/08/27 09:21:09;;;;;;;;;;;16.60;99.90;;;;;;8373374;28;20016;-70
2023/08/27 09:25:11;;;;;;;;;;;16.00;99.90;;;;;;8374037;28;19951;-71
2023/08/27 09:29:15;;;;;;;;;;;15.60;99.90;;;;;;8373731;28;20429;-71
2023/08/27 09:33:17;;;;;;;;;;;15.30;99.90;;;;;;8369583;28;19936;-70
2023/08/27 09:37:19;;;;;;;;;;;15.20;99.90;;;;;;8372540;28;19924;-70
2023/08/27 09:41:20;;;;;;;;;;;15.10;99.90;;;;;;8358745;28;20372;-70
2023/08/27 09:45:22;;;;;;;;;;;15.00;99.90;;;;;;8369719;28;19924;-70
2023/08/27 09:49:26;;;;;;;;;;;15.00;99.90;;;;;;8364595;28;19924;-70
2023/08/27 09:53:28;;;;;;;;;;;15.00;99.90;;;;;;8362215;28;20367;-70
2023/08/27 09:57:30;;;;;;;;;;;15.20;99.90;;;;;;8367351;28;20448;-71
2023/08/27 10:01:34;;;;;;;;;;;15.30;99.90;;;;;;8356790;28;19978;-71
2023/08/27 10:05:36;;;;;;;;;;;15.40;99.90;;;;;;8363205;28;19979;-71
2023/08/27 10:09:37;;;;;;;;;;;15.50;99.90;;;;;;8367755;28;19983;-70
2023/08/27 10:13:41;;;;;;;;;;;15.60;99.90;;;;;;8366109;28;19929;-71
2023/08/27 10:17:43;;;;;;;;;;;15.80;99.90;;;;;;8369193;28;19983;-71
2023/08/27 10:21:45;;;;;;;;;;;15.90;99.90;;;;;;8367796;28;19934;-70
2023/08/27 10:25:47;;;;;;;;;;;16.00;99.90;;;;;;8366601;28;20278;-71
2023/08/27 10:29:49;;;;;;;;;;;16.10;99.90;;;;;;8375046;28;20360;-71
2023/08/27 10:33:51;;;;;;;;;;;16.20;99.90;;;;;;8361527;28;20030;-71
2023/08/27 10:37:55;;;;;;;;;;;16.10;99.90;;;;;;8347661;28;19936;-71
2023/08/27 10:41:57;;;;;;;;;;;16.00;99.90;;;;;;8364905;28;19924;-70
2023/08/27 10:46:13;;;;;;;;;;;15.90;99.90;;;;;;8357799;28;19925;-71
2023/08/27 10:50:17;;;;;;;;;;;15.90;99.90;;;;;;8361821;28;20291;-70
2023/08/27 10:54:24;;;;;;;;;;;15.80;99.90;;;;;;8371607;28;19925;-70
2023/08/27 10:58:25;;;;;;;;;;;15.70;99.90;;;;;;8372701;28;19925;-70
2023/08/27 11:02:27;;;;;;;;;;;15.70;99.90;;;;;;8374355;28;20391;-70
2023/08/27 11:06:46;;;;;;;;;;;15.60;99.90;;;;;;8367211;28;19925;-70
2023/08/27 11:10:47;;;;;;;;;;;15.60;99.90;;;;;;8377887;28;19929;-71
2023/08/27 11:14:49;;;;;;;;;;;15.50;99.90;;;;;;8371020;28;19925;-71
2023/08/27 11:18:52;;;;;;;;;;;15.50;99.90;;;;;;8378210;28;19936;-70
2023/08/27 11:22:58;;;;;;;;;;;15.50;99.90;;;;;;8379195;28;19931;-71
2023/08/27 11:27:02;;;;;;;;;;;15.50;99.90;;;;;;8370202;28;19929;-71
2023/08/27 11:31:04;;;;;;;;;;;15.50;99.90;;;;;;8377034;28;19978;-71
2023/08/27 11:35:06;;;;;;;;;;;15.50;99.90;;;;;;8364377;28;19928;-70
2023/08/27 11:39:16;;;;;;;;;;;15.60;99.90;;;;;;8382484;28;20273;-68
2023/08/27 11:43:24;;;;;;;;;;;15.70;99.90;;;;;;8374428;28;20296;-68
2023/08/27 11:47:26;;;;;;;;;;;15.80;99.90;;;;;;8381494;28;19925;-69
2023/08/27 11:51:28;;;;;;;;;;;15.90;99.90;;;;;;8374550;28;20616;-68
2023/08/27 11:55:30;;;;;;;;;;;16.00;99.90;;;;;;8371619;28;19929;-69
2023/08/27 11:59:32;;;;;;;;;;;16.00;99.90;;;;;;8376559;28;19939;-68
2023/08/27 12:03:34;;;;;;;;;;;16.00;99.90;;;;;;8374709;28;19933;-69
2023/08/27 12:07:36;;;;;;;;;;;16.00;99.90;;;;;;8379617;28;19979;-69
2023/08/27 12:11:38;;;;;;;;;;;16.00;99.90;;;;;;8383662;28;19924;-69
2023/08/27 12:15:40;;;;;;;;;;;16.10;99.90;;;;;;8371065;28;19928;-69
2023/08/27 12:19:43;;;;;;;;;;;16.10;99.90;;;;;;8375110;28;19924;-69
2023/08/27 12:23:51;;;;;;;;;;;16.20;99.90;;;;;;8369660;28;20280;-69
2023/08/27 12:27:53;;;;;;;;;;;16.20;99.90;;;;;;8370233;28;20360;-70
2023/08/27 12:31:55;;;;;;;;;;;16.30;99.90;;;;;;8383937;28;19932;-69
2023/08/27 12:36:03;;;;;;;;;;;16.50;99.90;;;;;;8375867;28;20325;-70
2023/08/27 12:40:05;;;;;;;;;;;16.70;99.90;;;;;;8372712;28;19929;-69
2023/08/27 12:44:07;;;;;;;;;;;16.80;99.90;;;;;;8375443;28;19950;-70
2023/08/27 12:48:09;;;;;;;;;;;16.80;99.90;;;;;;8376734;28;20668;-70
2023/08/27 12:52:10;;;;;;;;;;;16.90;99.90;;;;;;8377148;28;20272;-69
2023/08/27 12:56:12;;;;;;;;;;;17.00;99.90;;;;;;8369390;28;20065;-68
2023/08/27 13:00:14;;;;;;;;;;;17.10;99.90;;;;;;8373799;28;19924;-69
2023/08/27 13:04:15;;;;;;;;;;;17.30;99.90;;;;;;8369585;28;19971;-70
2023/08/27 13:08:17;;;;;;;;;;;17.40;99.90;;;;;;8367067;28;19933;-70
2023/08/27 13:12:18;;;;;;;;;;;17.60;99.90;;;;;;8373883;28;19932;-69
2023/08/27 13:16:20;;;;;;;;;;;17.60;99.90;;;;;;8372833;28;19932;-70
2023/08/27 13:20:22;;;;;;;;;;;17.60;99.90;;;;;;8370411;28;20872;-69
2023/08/27 13:24:24;;;;;;;;;;;17.60;99.90;;;;;;8371982;28;19924;-70
2023/08/27 13:28:26;;;;;;;;;;;17.40;99.90;;;;;;8353114;28;19931;-70
2023/08/27 13:32:27;;;;;;;;;;;17.40;99.90;;;;;;8373387;28;19924;-70
2023/08/27 13:36:29;;;;;;;;;;;17.40;99.90;;;;;;8367016;28;19936;-70
2023/08/27 13:40:31;;;;;;;;;;;17.30;99.90;;;;;;8372777;28;19933;-69
2023/08/27 13:44:32;;;;;;;;;;;17.30;99.90;;;;;;8362997;28;19924;-69
2023/08/27 13:48:34;;;;;;;;;;;17.30;99.90;;;;;;8379552;28;19960;-70
2023/08/27 13:52:36;;;;;;;;;;;17.30;99.90;;;;;;8371823;28;20406;-70
2023/08/27 13:56:37;;;;;;;;;;;17.20;99.90;;;;;;8364361;28;19924;-70
2023/08/27 14:00:41;;;;;;;;;;;17.20;99.90;;;;;;8375518;28;19925;-69
2023/08/27 14:04:43;;;;;;;;;;;17.20;99.90;;;;;;8366525;28;20102;-69
2023/08/27 14:08:44;;;;;;;;;;;17.20;99.90;;;;;;8369157;28;20343;-70
2023/08/27 14:12:46;;;;;;;;;;;17.30;99.90;;;;;;8364724;28;21016;-70
2023/08/27 14:16:47;;;;;;;;;;;17.40;99.90;;;;;;8369567;28;19971;-69
2023/08/27 14:20:49;;;;;;;;;;;17.60;99.90;;;;;;8370968;28;19939;-69
2023/08/27 14:24:51;;;;;;;;;;;17.60;99.90;;;;;;8370064;28;19936;-69
2023/08/27 14:28:53;;;;;;;;;;;17.50;99.90;;;;;;8372483;28;19929;-69
2023/08/27 14:32:55;;;;;;;;;;;17.30;99.90;;;;;;8376843;28;19925;-69
2023/08/27 14:36:57;;;;;;;;;;;17.10;99.90;;;;;;8373662;28;20019;-68
2023/08/27 14:40:59;;;;;;;;;;;16.90;99.90;;;;;;8375303;28;19932;-69
2023/08/27 14:45:01;;;;;;;;;;;16.70;99.90;;;;;;8379620;28;20351;-69
2023/08/27 14:49:02;;;;;;;;;;;16.60;99.90;;;;;;8377424;28;19928;-70
2023/08/27 14:53:06;;;;;;;;;;;16.50;99.90;;;;;;8379372;28;20441;-69
2023/08/27 14:57:08;;;;;;;;;;;16.50;99.90;;;;;;8378967;28;19929;-69
2023/08/27 15:01:10;;;;;;;;;;;16.40;99.90;;;;;;8380047;28;19928;-69
2023/08/27 15:05:12;;;;;;;;;;;16.20;99.90;;;;;;8350568;28;20376;-69
2023/08/27 15:09:14;;;;;;;;;;;16.20;99.90;;;;;;8372828;28;19979;-68
2023/08/27 15:13:15;;;;;;;;;;;16.10;99.90;;;;;;8364802;28;19925;-69
2023/08/27 15:17:17;;;;;;;;;;;16.30;99.90;;;;;;8364031;28;19925;-69
2023/08/27 15:21:19;;;;;;;;;;;16.80;99.90;;;;;;8386551;28;19971;-68
2023/08/27 15:25:20;;;;;;;;;;;17.30;99.90;;;;;;8373853;28;20303;-69
2023/08/27 15:29:22;;;;;;;;;;;17.90;99.90;;;;;;8373732;28;19933;-69
2023/08/27 15:33:24;;;;;;;;;;;18.30;99.90;;;;;;8366767;28;19925;-69
2023/08/27 15:37:26;;;;;;;;;;;18.60;99.90;;;;;;8359128;28;19924;-69
2023/08/27 15:41:31;;;;;;;;;;;18.60;99.90;;;;;;8367611;28;20299;-68
2023/08/27 15:45:32;;;;;;;;;;;18.30;99.90;;;;;;8368133;28;19924;-69
2023/08/27 15:49:35;;;;;;;;;;;18.00;99.90;;;;;;8377990;28;19929;-68
2023/08/27 15:53:37;;;;;;;;;;;17.80;99.90;;;;;;8381263;28;19955;-69
2023/08/27 15:57:38;;;;;;;;;;;17.60;99.90;;;;;;8373674;28;19928;-69
2023/08/27 16:01:40;;;;;;;;;;;17.50;99.90;;;;;;8382143;28;19939;-68
2023/08/27 16:05:42;;;;;;;;;;;17.70;99.90;;;;;;8375644;28;19931;-69
2023/08/27 16:09:43;;;;;;;;;;;17.70;99.90;;;;;;8380774;28;19929;-68
2023/08/27 16:13:47;;;;;;;;;;;17.60;99.90;;;;;;8371531;28;20948;-69
2023/08/27 16:17:49;;;;;;;;;;;17.60;99.90;;;;;;8378301;28;20349;-69
2023/08/27 16:21:51;;;;;;;;;;;18.10;99.90;;;;;;8362771;28;19929;-69
2023/08/27 16:25:52;;;;;;;;;;;18.60;99.90;;;;;;8369959;28;19928;-69
2023/08/27 16:29:54;;;;;;;;;;;19.00;99.90;;;;;;8371980;28;19924;-68
2023/08/27 16:33:56;;;;;;;;;;;19.40;99.90;;;;;;8372460;28;19944;-69
2023/08/27 16:38:01;;;;;;;;;;;19.50;99.90;;;;;;8380134;28;20472;-69
2023/08/27 16:42:03;;;;;;;;;;;19.60;99.90;;;;;;8377445;28;19932;-69
2023/08/27 16:46:05;;;;;;;;;;;19.70;99.90;;;;;;8368020;28;19932;-69
2023/08/27 16:50:08;;;;;;;;;;;19.80;99.90;;;;;;8371178;28;19940;-69
2023/08/27 16:54:10;;;;;;;;;;;19.90;99.90;;;;;;8367966;28;19925;-69
2023/08/27 16:58:12;;;;;;;;;;;19.80;99.90;;;;;;8366940;28;19931;-69
2023/08/27 17:02:14;;;;;;;;;;;19.80;99.90;;;;;;8365686;28;20226;-69
2023/08/27 17:06:15;;;;;;;;;;;19.80;99.90;;;;;;8362444;28;19924;-70
2023/08/27 17:10:18;;;;;;;;;;;19.70;99.90;;;;;;8369602;28;19925;-70
2023/08/27 17:14:19;;;;;;;;;;;19.60;99.90;;;;;;8375729;28;19990;-69
2023/08/27 17:18:21;;;;;;;;;;;19.50;99.90;;;;;;8373919;28;19964;-69
2023/08/27 17:22:24;;;;;;;;;;;19.40;99.90;;;;;;8361482;28;19928;-69
2023/08/27 17:26:26;;;;;;;;;;;19.30;99.90;;;;;;8368218;28;19931;-69
2023/08/27 17:30:27;;;;;;;;;;;19.10;99.90;;;;;;8370153;28;19936;-69
2023/08/27 17:34:29;;;;;;;;;;;19.00;99.90;;;;;;8362808;28;20091;-70
2023/08/27 17:38:31;;;;;;;;;;;18.70;99.90;;;;;;8368388;28;20346;-69
2023/08/27 17:42:32;;;;;;;;;;;18.50;99.90;;;;;;8366920;28;19983;-69
2023/08/27 17:46:34;;;;;;;;;;;18.40;99.90;;;;;;8366506;28;19924;-69
2023/08/27 17:50:36;;;;;;;;;;;18.20;99.90;;;;;;8371231;28;19925;-69
2023/08/27 17:54:37;;;;;;;;;;;18.20;99.90;;;;;;8364113;28;20400;-69
2023/08/27 17:58:41;;;;;;;;;;;18.10;99.90;;;;;;8368554;28;20460;-69
2023/08/27 18:02:43;;;;;;;;;;;18.00;99.90;;;;;;8364692;28;20341;-69
2023/08/27 18:06:44;;;;;;;;;;;18.00;99.90;;;;;;8374964;28;19981;-69
2023/08/27 18:10:46;;;;;;;;;;;17.90;99.90;;;;;;8377762;28;19925;-69
2023/08/27 18:14:48;;;;;;;;;;;17.90;99.90;;;;;;8364405;28;20371;-69
2023/08/27 18:18:49;;;;;;;;;;;17.80;99.90;;;;;;8359624;28;19932;-69
2023/08/27 18:22:51;;;;;;;;;;;17.80;99.90;;;;;;8364868;28;19925;-69
2023/08/27 18:26:53;;;;;;;;;;;17.70;99.90;;;;;;8375597;28;19978;-69
2023/08/27 18:30:55;;;;;;;;;;;17.70;99.90;;;;;;8366062;28;19928;-69
2023/08/27 18:34:57;;;;;;;;;;;17.60;99.90;;;;;;8365668;28;19967;-69
2023/08/27 18:39:00;;;;;;;;;;;17.60;99.90;;;;;;8371758;28;20424;-69
2023/08/27 18:43:01;;;;;;;;;;;17.50;99.90;;;;;;8369375;28;19947;-69
2023/08/27 18:47:03;;;;;;;;;;;17.40;99.90;;;;;;8362836;28;19968;-69
2023/08/27 18:51:05;;;;;;;;;;;17.30;99.90;;;;;;8364183;28;19947;-69
2023/08/27 18:55:07;;;;;;;;;;;17.30;99.90;;;;;;8367251;28;20564;-69
2023/08/27 18:59:09;;;;;;;;;;;17.20;99.90;;;;;;8374966;28;19924;-69
2023/08/27 19:03:11;;;;;;;;;;;17.10;99.90;;;;;;8365808;28;20334;-69
2023/08/27 19:07:13;;;;;;;;;;;17.00;99.90;;;;;;8374085;28;19931;-69
2023/08/27 19:11:14;;;;;;;;;;;16.90;99.90;;;;;;8372614;28;20490;-69
2023/08/27 19:15:16;;;;;;;;;;;16.80;99.90;;;;;;8357158;28;20380;-69
2023/08/27 19:19:18;;;;;;;;;;;16.70;99.90;;;;;;8362908;28;20368;-69
2023/08/27 19:23:19;;;;;;;;;;;16.60;99.90;;;;;;8364155;28;20406;-69
2023/08/27 19:27:21;;;;;;;;;;;16.60;99.90;;;;;;8368706;28;19936;-69
2023/08/27 19:31:23;;;;;;;;;;;16.50;99.90;;;;;;8380756;28;19936;-69
2023/08/27 19:35:30;;;;;;;;;;;16.40;99.90;;;;;;8359679;28;19925;-69
2023/08/27 19:39:32;;;;;;;;;;;16.40;99.90;;;;;;8376210;28;19978;-69
2023/08/27 19:43:34;;;;;;;;;;;16.30;99.90;;;;;;8377340;28;19929;-69
2023/08/27 19:47:35;;;;;;;;;;;16.30;99.90;;;;;;8374617;28;19924;-69
2023/08/27 19:51:37;;;;;;;;;;;16.20;99.90;;;;;;8370334;28;19994;-69
2023/08/27 19:55:44;;;;;;;;;;;16.20;99.90;;;;;;8371722;28;19929;-69
2023/08/27 19:59:46;;;;;;;;;;;16.10;99.90;;;;;;8361260;28;19986;-69
2023/08/27 20:03:47;;;;;;;;;;;16.10;99.90;;;;;;8373629;28;19929;-69
2023/08/27 20:07:49;;;;;;;;;;;16.00;99.90;;;;;;8379440;28;19935;-69
2023/08/27 20:11:51;;;;;;;;;;;16.00;99.90;;;;;;8372948;28;19924;-68
2023/08/27 20:15:53;;;;;;;;;;;16.00;99.90;;;;;;8379538;28;20276;-69
2023/08/27 20:19:54;;;;;;;;;;;16.00;99.90;;;;;;8368678;28;20599;-69
2023/08/27 20:23:56;;;;;;;;;;;16.00;99.90;;;;;;8379229;28;19970;-69
2023/08/27 20:27:58;;;;;;;;;;;16.00;99.90;;;;;;8381430;28;19933;-69
2023/08/27 20:32:00;;;;;;;;;;;16.00;99.90;;;;;;8382579;28;19928;-69
2023/08/27 20:36:01;;;;;;;;;;;16.00;99.90;;;;;;8368284;28;19924;-69
2023/08/27 20:40:04;;;;;;;;;;;16.10;99.90;;;;;;8369353;28;19982;-69
2023/08/27 20:44:06;;;;;;;;;;;16.10;99.90;;;;;;8376960;28;19925;-69
2023/08/27 20:48:07;;;;;;;;;;;16.00;99.90;;;;;;8380754;28;19954;-69
2023/08/27 20:52:09;;;;;;;;;;;16.00;99.90;;;;;;8372309;28;19924;-69
2023/08/27 20:56:11;;;;;;;;;;;16.00;99.90;;;;;;8377286;28;19932;-69
2023/08/27 21:00:12;;;;;;;;;;;16.00;99.90;;;;;;8373221;28;19925;-69
2023/08/27 21:04:14;;;;;;;;;;;16.00;99.90;;;;;;8372895;28;20312;-69
2023/08/27 21:08:16;;;;;;;;;;;16.00;99.90;;;;;;8379976;28;19932;-69
2023/08/27 21:12:17;;;;;;;;;;;16.00;99.90;;;;;;8369241;28;19983;-69
2023/08/27 21:16:19;;;;;;;;;;;15.90;99.90;;;;;;8374072;28;19986;-69
2023/08/27 21:20:21;;;;;;;;;;;15.90;99.90;;;;;;8374803;28;19932;-69
2023/08/27 21:24:23;;;;;;;;;;;15.90;99.90;;;;;;8369163;28;19932;-69
2023/08/27 21:28:24;;;;;;;;;;;15.90;99.90;;;;;;8371010;28;19931;-69
2023/08/27 21:32:28;;;;;;;;;;;15.90;99.90;;;;;;8353433;28;19932;-69
2023/08/27 21:36:30;;;;;;;;;;;15.90;99.90;;;;;;8372495;28;20340;-69
2023/08/27 21:40:38;;;;;;;;;;;15.90;99.90;;;;;;8376646;28;19931;-69
2023/08/27 21:44:40;;;;;;;;;;;15.90;99.90;;;;;;8380974;28;19925;-69
2023/08/27 21:48:41;;;;;;;;;;;15.80;99.90;;;;;;8337494;28;19931;-69
2023/08/27 21:52:43;;;;;;;;;;;15.80;99.90;;;;;;8365361;28;20286;-68
2023/08/27 21:56:45;;;;;;;;;;;15.80;99.90;;;;;;8375553;28;19928;-68
2023/08/27 22:00:46;;;;;;;;;;;15.70;99.90;;;;;;8369683;28;20570;-69
2023/08/27 22:04:48;;;;;;;;;;;15.60;99.90;;;;;;8374646;28;20394;-68
2023/08/27 22:08:50;;;;;;;;;;;15.50;99.90;;;;;;8365783;28;20007;-68
2023/08/27 22:12:51;;;;;;;;;;;15.40;99.90;;;;;;8367251;28;19932;-68
2023/08/27 22:16:55;;;;;;;;;;;15.30;99.90;;;;;;8368149;28;20426;-68
2023/08/27 22:20:59;;;;;;;;;;;15.30;99.90;;;;;;8369019;28;19932;-68
2023/08/27 22:25:02;;;;;;;;;;;15.30;99.90;;;;;;8365904;28;19924;-68
2023/08/27 22:29:03;;;;;;;;;;;15.30;99.90;;;;;;8363750;28;20457;-68
2023/08/27 22:33:05;;;;;;;;;;;15.30;99.90;;;;;;8374540;28;19928;-68
2023/08/27 22:37:07;;;;;;;;;;;15.30;99.90;;;;;;8369971;28;19924;-68
2023/08/27 22:41:09;;;;;;;;;;;15.30;99.90;;;;;;8377205;28;19991;-68
2023/08/27 22:45:10;;;;;;;;;;;15.30;99.90;;;;;;8378439;28;19929;-68
2023/08/27 22:49:13;;;;;;;;;;;15.30;99.90;;;;;;8373291;28;20433;-69
2023/08/27 23:08:27;;;;;;;;;;;15.40;99.90;;;;;;8379920;28;19967;-68
2023/08/27 23:12:28;;;;;;;;;;;15.30;99.90;;;;;;8378887;28;19985;-68
2023/08/27 23:16:30;;;;;;;;;;;15.30;99.90;;;;;;8382970;28;19924;-68
2023/08/27 23:20:32;;;;;;;;;;;15.20;99.90;;;;;;8367727;28;20411;-69
2023/08/27 23:24:33;;;;;;;;;;;15.20;99.90;;;;;;8374580;28;20371;-68
2023/08/27 23:28:36;;;;;;;;;;;15.10;99.90;;;;;;8384503;28;20277;-68
2023/08/27 23:32:37;;;;;;;;;;;15.10;99.90;;;;;;8371499;28;19929;-68
2023/08/27 23:36:39;;;;;;;;;;;15.00;99.90;;;;;;8375104;28;20640;-68
2023/08/27 23:40:41;;;;;;;;;;;15.00;99.90;;;;;;8380675;28;19925;-68
2023/08/27 23:44:42;;;;;;;;;;;14.90;99.90;;;;;;8374126;28;19929;-68
2023/08/27 23:48:56;;;;;;;;;;;14.90;99.90;;;;;;8377417;28;19935;-69
2023/08/27 23:52:58;;;;;;;;;;;14.90;99.90;;;;;;8374420;28;19931;-69
2023/08/27 23:57:00;;;;;;;;;;;14.80;99.90;;;;;;8378206;28;19928;-68
